O.R. Tambo International Airport (JNB/FAOR)




Flight Aircraft Arriving
CPX975 B763
HKJK - Jomo Kenyatta International Airport
Kenya Nairobi, Kenya
Flight Aircraft Departing
CPX973 B763
HKJK - Jomo Kenyatta International Airport
Kenya Nairobi, Kenya
Airport Information
Location: Johannesburg, ZA
Coordinates: -26.1337 / 28.2423
Elevation:
Time Offset:
Local Time:
UTC Time:
Jet A Price: $0.95/lbs

Current Weather
METAR: FAOR 050700Z 22006KT CAVOK 16/11 Q1023 NOSIG
TAF: TAF FAOR 050400Z 0506/0612 22008KT CAVOK TX23/0612Z TN12/0604Z PROB40 TEMPO 0506/0507 5000 BR NSC BECMG 0508/0510 SCT035 FM051700 VRB03KT CAVOK BECMG 0606/0608 30008KT BECMG 0611/0612 SCT040

Recent Arrivals
Date Flight Type Depart
03/19/2020 CPX973 B763 Jomo Kenyatta International Airport (HKJK)
Recent Departures
Date Flight Type Arrive
03/19/2020 CPX975 B763 Jomo Kenyatta International Airport (HKJK)